Latest Weather Observations for Burnie Port

IDT60801

Issued at 9:01 pm EST Saturday 30 April 2016 (issued every 30 minutes, with the page automatically refreshed every 10 minutes)

About weather observations | Map of weather stations | Latest weather observations for TAS | Other Formats
Station Details ID: 091344 Name: BURNIE NTC AWS Lat: -41.05 Lon: 145.91 Height: 0.0 m
Data from the previous 72 hours. | See also: Recent months for locations in Tasmania
Date/Time
EST
Temp
°C
App
Temp
°C
Dew
Point
Rel
Hum
%
Delta-T
°C
Wind Press
QNH
hPa
Press
MSL
hPa
Rain
since 9 am
mm
Dir
 
Spd
km/h
Gust
km/h
Spd
kts
Gust
kts
30/09:00pm 17.6 - - - - E 11 17 6 9 1008.4 1008.4 -
30/08:30pm 17.4 - - - - SE 6 7 3 4 1008.5 1008.5 -
30/08:00pm 17.5 - - - - E 6 7 3 4 1008.8 1008.8 -
30/07:30pm 17.5 - - - - ENE 6 9 3 5 1008.9 1008.9 -
30/07:00pm 17.6 - - - - NE 13 15 7 8 1008.8 1008.8 -
30/06:30pm 17.6 - - - - N 7 9 4 5 1008.9 1008.9 -
30/06:00pm 17.7 - - - - N 7 11 4 6 1008.9 1008.9 -
30/05:30pm 17.7 - - - - NNW 11 13 6 7 1008.8 1008.8 -
30/05:00pm 17.7 - - - - NNW 11 15 6 8 1009.1 1009.1 -
30/04:30pm 17.7 - - - - NNW 17 20 9 11 1009.4 1009.4 -
30/04:00pm 17.7 - - - - NNW 17 20 9 11 1009.5 1009.5 -
30/03:30pm 17.6 - - - - NW 19 24 10 13 1009.5 1009.5 -
30/03:00pm 17.6 - - - - NNW 17 22 9 12 1009.7 1009.7 -
30/02:30pm 17.6 - - - - NW 19 24 10 13 1009.7 1009.7 -
30/02:00pm 17.6 - - - - NNW 22 28 12 15 1009.8 1009.8 -
30/01:30pm 17.7 - - - - NNW 26 32 14 17 1010.0 1010.0 -
30/01:00pm 17.7 - - - - NNW 24 32 13 17 1010.3 1010.3 -
30/12:30pm 17.7 - - - - NNW 24 28 13 15 1010.7 1010.7 -
30/12:00pm 17.7 - - - - N 22 26 12 14 1011.1 1011.1 -
30/11:30am 17.5 - - - - N 24 30 13 16 1011.3 1011.3 -
30/11:00am 17.5 - - - - NNW 20 28 11 15 1011.6 1011.6 -
30/10:30am 17.6 - - - - NNW 24 33 13 18 1011.6 1011.6 -
30/10:24am 17.5 - - - - NNW 28 33 15 18 1011.7 1011.7 -
30/10:00am 16.1 - - - - E 6 11 3 6 1012.1 1012.1 -
30/09:30am 15.9 - - - - ENE 2 4 1 2 1012.4 1012.4 -
30/09:00am 15.6 - - - - S 6 7 3 4 1012.4 1012.4 -
30/08:30am 15.2 - - - - SSE 2 6 1 3 1012.6 1012.6 -
30/08:00am 14.8 - - - - ESE 2 4 1 2 1012.6 1012.6 -
30/07:30am 14.4 - - - - SSW 7 9 4 5 1012.4 1012.4 -
30/07:00am 14.3 - - - - SSW 7 9 4 5 1012.2 1012.2 -
30/06:30am 14.0 - - - - SSW 9 11 5 6 1012.0 1012.0 -
30/06:00am 13.9 - - - - SSW 7 9 4 5 1012.1 1012.1 -
30/05:30am 13.4 - - - - SSW 7 9 4 5 1012.0 1012.0 -
30/05:00am 13.4 - - - - SSW 7 7 4 4 1012.0 1012.0 -
30/04:30am 13.5 - - - - SSW 6 6 3 3 1011.9 1011.9 -
30/04:00am 13.7 - - - - SSW 6 7 3 4 1011.8 1011.8 -
30/03:30am 14.3 - - - - SSW 4 7 2 4 1011.8 1011.8 -
30/03:00am 14.5 - - - - SE 2 4 1 2 1011.8 1011.8 -
30/02:30am 14.5 - - - - SSW 4 7 2 4 1011.8 1011.8 -
30/02:00am 14.5 - - - - SSW 6 7 3 4 1011.9 1011.9 -
30/01:30am 14.5 - - - - S 2 6 1 3 1012.0 1012.0 -
30/01:00am 14.3 - - - - S 4 6 2 3 1012.0 1012.0 -
30/12:30am 14.0 - - - - S 4 7 2 4 1012.0 1012.0 -
30/12:00am 14.5 - - - - WSW 2 4 1 2 1011.9 1011.9 -
 
Date/Time
EST
Temp
°C
App
Temp
°C
Dew
Point
Rel
Hum
%
Delta-T
°C
Wind Press
QNH
hPa
Press
MSL
hPa
Rain
since 9 am
mm
Dir
 
Spd
km/h
Gust
km/h
Spd
kts
Gust
kts
29/11:30pm 14.9 - - - - WNW 4 7 2 4 1012.0 1012.0 -
29/11:00pm 15.1 - - - - W 6 9 3 5 1012.2 1012.2 -
29/10:30pm 15.5 - - - - W 9 17 5 9 1012.2 1012.2 -
29/10:00pm 15.8 - - - - W 9 13 5 7 1012.2 1012.2 -
29/09:30pm 16.2 - - - - W 11 17 6 9 1012.0 1012.0 -
29/09:00pm 16.6 - - - - W 15 26 8 14 1011.7 1011.7 -
29/08:30pm 17.2 - - - - NW 35 46 19 25 1011.3 1011.3 -
29/08:00pm 17.3 - - - - NNW 39 46 21 25 1011.0 1011.0 -
29/07:30pm 17.2 - - - - NNW 33 43 18 23 1010.9 1010.9 -
29/07:00pm 17.2 - - - - NNW 35 44 19 24 1010.8 1010.8 -
29/06:30pm 17.0 - - - - NNW 35 44 19 24 1010.8 1010.8 -
29/06:00pm 16.9 - - - - NNW 30 39 16 21 1010.8 1010.8 -
29/05:30pm 16.6 - - - - NNW 33 39 18 21 1010.8 1010.8 -
29/05:00pm 16.5 - - - - NNW 41 50 22 27 1010.7 1010.7 -
29/04:30pm 16.5 - - - - NNW 41 50 22 27 1010.6 1010.6 -
29/04:00pm 16.5 - - - - NNW 33 44 18 24 1010.6 1010.6 -
29/03:30pm 16.7 - - - - NNW 30 37 16 20 1010.7 1010.7 -
29/03:00pm 17.0 - - - - N 28 35 15 19 1011.1 1011.1 -
29/02:30pm 17.0 - - - - N 28 35 15 19 1011.0 1011.0 -
29/02:00pm 16.7 - - - - NNE 20 24 11 13 1011.2 1011.2 -
29/01:30pm 16.7 - - - - NNE 20 24 11 13 1011.2 1011.2 -
29/01:00pm 16.8 - - - - NNE 20 24 11 13 1011.4 1011.4 -
29/12:30pm 17.0 - - - - N 17 19 9 10 1011.8 1011.8 -
29/12:00pm 17.0 - - - - NNE 13 19 7 10 1012.3 1012.3 -
29/11:30am 17.1 - - - - ESE 20 26 11 14 1012.8 1012.8 -
29/11:00am 17.1 - - - - ESE 22 28 12 15 1013.4 1013.4 -
29/10:30am 17.5 - - - - ESE 20 24 11 13 1013.7 1013.7 -
29/10:00am 17.8 - - - - SSW 2 9 1 5 1014.1 1014.1 -
29/09:30am 17.9 - - - - SSE 15 20 8 11 1014.1 1014.1 -
29/09:00am 17.6 - - - - S 11 19 6 10 1014.1 1014.1 -
29/08:30am 17.9 - - - - SSE 15 20 8 11 1014.1 1014.1 -
29/08:00am 16.7 - - - - S 13 19 7 10 1014.1 1014.1 -
29/07:30am 16.4 - - - - S 17 22 9 12 1014.3 1014.3 -
29/07:00am 16.3 - - - - S 11 13 6 7 1014.7 1014.7 -
29/06:30am 16.9 - - - - S 7 9 4 5 1014.9 1014.9 -
29/06:00am 17.0 - - - - SE 9 13 5 7 1015.0 1015.0 -
29/05:30am 16.6 - - - - S 11 13 6 7 1015.0 1015.0 -
29/05:00am 16.8 - - - - S 15 22 8 12 1015.0 1015.0 -
29/04:30am 17.0 - - - - SSE 13 24 7 13 1014.9 1014.9 -
29/04:00am 16.6 - - - - SSE 13 17 7 9 1015.1 1015.1 -
29/03:30am 16.9 - - - - SE 13 17 7 9 1015.4 1015.4 -
29/03:00am 16.4 - - - - SSE 11 13 6 7 1015.4 1015.4 -
29/02:30am 16.7 - - - - SSE 7 9 4 5 1016.1 1016.1 -
29/02:00am 17.1 - - - - SE 11 13 6 7 1016.0 1016.0 -
29/01:30am 17.2 - - - - E 11 17 6 9 1016.2 1016.2 -
29/01:00am 17.2 - - - - ENE 7 13 4 7 1016.9 1016.9 -
29/12:30am 16.1 - - - - SSE 7 9 4 5 1017.1 1017.1 -
29/12:00am 16.0 - - - - SSW 6 7 3 4 1017.3 1017.3 -
 
Date/Time
EST
Temp
°C
App
Temp
°C
Dew
Point
Rel
Hum
%
Delta-T
°C
Wind Press
QNH
hPa
Press
MSL
hPa
Rain
since 9 am
mm
Dir
 
Spd
km/h
Gust
km/h
Spd
kts
Gust
kts
28/11:30pm 16.0 - - - - S 7 9 4 5 1017.3 1017.3 -
28/11:00pm 15.9 - - - - SSW 7 9 4 5 1017.3 1017.3 -
28/10:30pm 15.9 - - - - SSW 7 9 4 5 1017.3 1017.3 -
28/10:00pm 15.9 - - - - SSW 7 9 4 5 1017.4 1017.4 -
28/09:30pm 15.9 - - - - SSW 7 9 4 5 1017.3 1017.3 -
28/09:00pm 16.1 - - - - SSW 7 9 4 5 1017.6 1017.6 -
28/08:30pm 16.5 - - - - WSW 4 9 2 5 1017.5 1017.5 -
28/08:00pm 17.1 - - - - W 2 6 1 3 1017.2 1017.2 -
28/07:30pm 17.3 - - - - WNW 2 6 1 3 1017.0 1017.0 -
28/07:00pm 17.3 - - - - W 4 7 2 4 1016.9 1016.9 -
28/06:30pm 17.3 - - - - NW 15 17 8 9 1016.6 1016.6 -
28/06:00pm 17.4 - - - - NW 15 19 8 10 1016.5 1016.5 -
28/05:30pm 17.4 - - - - NW 15 20 8 11 1016.1 1016.1 -
28/05:00pm 17.4 - - - - NNW 20 26 11 14 1015.9 1015.9 -
28/04:30pm 17.6 - - - - NW 11 17 6 9 1015.7 1015.7 -
28/04:00pm 17.6 - - - - NW 19 22 10 12 1015.7 1015.7 -
28/03:30pm 17.7 - - - - NNW 19 22 10 12 1015.5 1015.5 -
28/03:00pm 17.5 - - - - NNW 19 22 10 12 1015.3 1015.3 -
28/02:30pm 17.6 - - - - NW 17 20 9 11 1015.1 1015.1 -
28/02:00pm 17.4 - - - - NNW 13 17 7 9 1015.0 1015.0 -
28/01:30pm 17.3 - - - - NNW 11 15 6 8 1015.0 1015.0 -
28/01:00pm 17.2 - - - - NW 9 11 5 6 1015.3 1015.3 -
28/12:30pm 17.1 - - - - NW 9 11 5 6 1015.5 1015.5 -
28/12:00pm 17.3 - - - - NW 7 9 4 5 1015.7 1015.7 -
28/11:30am 17.0 - - - - NNW 6 6 3 3 1015.8 1015.8 -
28/11:00am 16.9 - - - - ESE 2 4 1 2 1015.4 1015.4 -
28/10:30am 17.2 - - - - S 4 6 2 3 1015.7 1015.7 -
28/10:00am 16.4 - - - - SSE 2 4 1 2 1015.5 1015.5 -
28/09:30am 17.0 - - - - WSW 2 2 1 1 1015.9 1015.9 -
28/09:00am 16.2 - - - - SSE 4 6 2 3 1015.6 1015.6 -
28/08:30am 16.3 - - - - S 2 6 1 3 1015.5 1015.5 -
28/08:00am 16.2 - - - - S 4 6 2 3 1014.9 1014.9 -
28/07:30am 16.3 - - - - CALM 0 4 0 2 1014.4 1014.4 -

Other Formats:

Comma delimited format used in spreadsheet applications
http://www.bom.gov.au/fwo/IDT60801/IDT60801.95963.axf

JavaScript Object Notation format (JSON) in row-major order
http://www.bom.gov.au/fwo/IDT60801/IDT60801.95963.json